Pisek, ND

7:19 PM CDT on July 23, 2014 (GMT -0500)
Grand Forks Air Force Base (KRDR) Elev 912 ft | 47.96 °N, 97.40 °W | Change Station

Current weather conditions updated 21 minutes ago

Clear
Clear
72 °F
Feels Like 72 °F
N
5
Wind Variable Wind from NNW

Tomorrow is forecast to be Warmer than today. Late night thunderstorms tomorrow night.

Today
High -- | Low -- °F
--% Chance of Precip.
Yesterday
High -- | Low -- °F
Precip. -- in
5:54 AM 9:19 PM
Waning Crescent, 8% visible
Pressure 30.24 in
Visibility 10.0 miles
Clouds Clear
Dew Point 59 °F
Humidity 62%
Rainfall 0.00 in
Snow Depth Not available.
UV 2 out of 12
Pollen 7.00 out of 12
Air Quality Not available.
Flu Activity Not available.
METAR KRDR 232358Z AUTO 34004KT 10SM CLR 23/15 A3022 RMK AO2 SLP238 T02250150 10234 20218 57019

More Conditions Fewer Conditions

Pressure 30.24 in
Visibility 10.0 miles
Clouds Clear
Dew Point 59 °F
Humidity 62%
Rainfall 0.00 in
Snow Depth Not available.
UV 2 out of 12
Pollen 7.00 out of 12
Air Quality Not available.
Flu Activity Not available.
METAR KRDR 232358Z AUTO 34004KT 10SM CLR 23/15 A3022 RMK AO2 SLP238 T02250150 10234 20218 57019

More Conditions Fewer Conditions

10-Day Weather Forecast

Almanac

Astronomy

Jul. 23, 2014 Rise Set
Actual Time 5:54 AM CDT 9:19 PM CDT
Civil Twilight 5:16 AM CDT 9:57 PM CDT
Nautical Twilight 4:25 AM CDT 10:47 PM CDT
Astronomical Twilight 3:18 AM CDT 11:53 PM CDT
Moon 3:16 AM CDT (7/23) 6:47 PM CDT (7/23)
Length of Visible Light 16h 40m
Length of Day
15h 24m
Tomorrow will be 2m 23s shorter.
Waning Crescent, 8% of the Moon is Illuminated
Today
Waning Crescent
Jul 26
New
Aug 3
First Quarter
Aug 10
Full
Aug 17
Last Quarter

Today's Extremes

State Highs State Lows

Community

WunderPhotos

Upload Photos

1,736,826 photos uploaded!

Nearby

Snow Depth

Station Depth Elevation
No new snow has been reported.

Earthquake Activity

City Distance Mag. Time & Date
No recent earthquake activity has been reported nearby.
Minimum magnitude displayed is 2.5.

Coastal Water Temperatures

Place Temperature
No Stations Reporting

Nearby Weather Stations

Station Location Temp. Heat Index Dew Point Humidity Wind Precip. Elev Updated Type
Hoople nd, Hoople, ND 70.9 °F 77 °F 53 °F 54% NNE  at  2.0 mph 0.00 in / hr 870 ft 7:13 PM CDT Normal

Show More Stations Show Fewer Stations